Time;durP1;ratioP1;P1;durP2;ratioP2;P2;SDS_P1;SDS_P2;PMS_P1;PMS_P2;Temp;Humidity;BMP_temperature;BMP_pressure;BME280_temperature;BME280_humidity;BME280_pressure;Samples;Min_cycle;Max_cycle;Signal;HPM_P1;HPM_P2
2022/09/11 00:11:03;;;;;;;1.40;0.93;;;15.90;99.90;;;;;;5188906;23;20676;-96
2022/09/11 00:13:33;;;;;;;1.80;0.77;;;15.70;99.90;;;;;;4946396;29;20650;-96
2022/09/11 01:48:28;;;;;;;1.37;1.10;;;15.90;99.90;;;;;;4955550;28;20681;-96
2022/09/11 01:51:00;;;;;;;3.80;1.47;;;15.70;99.90;;;;;;4954181;28;20630;-95
2022/09/11 01:54:16;;;;;;;;;;;;;;;;;;;;;
2022/09/11 02:04:26;;;;;;;1.43;1.23;;;15.90;99.90;;;;;;4885695;29;20680;-93
2022/09/11 02:07:25;;;;;;;1.10;1.00;;;15.70;99.90;;;;;;4924007;28;20654;-94
2022/09/11 02:10:06;;;;;;;2.50;1.03;;;15.90;99.90;;;;;;4951574;28;20646;-94
2022/09/11 08:40:36;;;;;;;7.23;5.63;;;19.10;99.90;;;;;;5424515;23;20776;-82
2022/09/11 08:43:04;;;;;;;9.07;5.27;;;19.10;99.90;;;;;;4948642;28;20666;-83
2022/09/11 08:45:35;;;;;;;7.87;6.60;;;19.00;99.90;;;;;;4948776;28;20622;-82
2022/09/11 08:48:02;;;;;;;6.93;6.43;;;18.90;99.90;;;;;;4941643;28;20701;-82
2022/09/11 08:50:34;;;;;;;6.50;6.00;;;18.90;99.90;;;;;;4943052;28;21007;-81
2022/09/11 08:53:02;;;;;;;7.20;6.60;;;18.90;99.90;;;;;;4942732;28;20760;-82
2022/09/11 08:55:37;;;;;;;7.07;6.53;;;19.00;99.90;;;;;;4940485;28;20684;-82
2022/09/11 08:58:11;;;;;;;7.33;6.70;;;19.10;99.90;;;;;;4940512;28;21708;-82
2022/09/11 09:00:42;;;;;;;6.43;6.03;;;19.30;99.90;;;;;;4946503;28;20969;-82
2022/09/11 09:03:34;;;;;;;6.03;5.40;;;19.50;99.90;;;;;;4943017;28;20650;-82
2022/09/11 09:06:15;;;;;;;6.90;6.30;;;19.60;99.90;;;;;;4942711;28;20641;-82
2022/09/11 09:08:49;;;;;;;6.53;5.90;;;19.70;99.90;;;;;;4943973;28;20622;-82
2022/09/11 09:11:29;;;;;;;7.63;7.13;;;19.70;99.90;;;;;;4941957;29;21172;-82
2022/09/11 09:14:19;;;;;;;9.47;6.43;;;19.50;99.90;;;;;;4942645;28;20637;-82
2022/09/11 09:16:52;;;;;;;5.50;5.00;;;19.30;99.90;;;;;;4937966;29;20662;-82
2022/09/11 09:19:24;;;;;;;6.53;6.00;;;19.20;99.90;;;;;;4943065;28;20650;-82
2022/09/11 09:22:01;;;;;;;6.20;5.70;;;19.00;99.90;;;;;;4939155;28;20658;-82
2022/09/11 09:24:32;;;;;;;6.90;6.30;;;18.90;99.90;;;;;;4945462;28;20726;-82
2022/09/11 09:27:03;;;;;;;6.07;5.73;;;18.80;99.90;;;;;;4948190;28;20676;-82
2022/09/11 09:29:35;;;;;;;6.63;6.13;;;18.80;99.90;;;;;;4943314;28;20627;-82
2022/09/11 09:32:06;;;;;;;6.50;5.73;;;18.70;99.90;;;;;;4947463;28;20657;-83
2022/09/11 09:34:36;;;;;;;6.07;5.67;;;18.80;99.90;;;;;;4943344;28;20630;-83
2022/09/11 09:37:06;;;;;;;7.20;6.70;;;18.80;99.90;;;;;;4944549;28;21080;-83
2022/09/11 09:39:35;;;;;;;6.90;6.33;;;19.00;99.90;;;;;;4942881;28;20691;-83
2022/09/11 09:42:29;;;;;;;6.50;6.00;;;19.20;99.90;;;;;;4950155;28;20742;-84
2022/09/11 09:45:20;;;;;;;6.00;5.60;;;19.50;99.90;;;;;;4945416;28;20642;-82
2022/09/11 09:47:47;;;;;;;6.10;5.40;;;19.70;99.90;;;;;;4946845;28;20984;-83
2022/09/11 09:50:19;;;;;;;5.77;5.27;;;19.80;99.90;;;;;;4948376;28;20634;-83
2022/09/11 09:52:51;;;;;;;6.73;6.13;;;20.00;99.90;;;;;;4946875;28;20681;-83
2022/09/11 09:55:20;;;;;;;6.50;5.93;;;20.20;99.90;;;;;;4948982;28;20631;-84
2022/09/11 09:57:48;;;;;;;5.47;5.07;;;20.50;99.90;;;;;;4949024;28;20630;-84
2022/09/11 10:00:18;;;;;;;5.10;4.80;;;20.70;99.90;;;;;;4943075;29;20670;-84
2022/09/11 10:02:48;;;;;;;3.73;3.53;;;20.80;99.90;;;;;;4947794;28;20656;-84
2022/09/11 10:05:25;;;;;;;3.97;3.70;;;20.80;99.90;;;;;;4941466;28;20684;-83
2022/09/11 10:07:54;;;;;;;4.50;4.10;;;20.70;99.90;;;;;;4948124;28;20624;-84
2022/09/11 10:10:24;;;;;;;4.10;3.80;;;20.60;99.90;;;;;;4945266;29;20707;-83
2022/09/11 10:12:53;;;;;;;4.90;4.40;;;20.50;99.90;;;;;;4942434;28;20664;-84
2022/09/11 10:15:22;;;;;;;5.60;5.30;;;20.60;99.90;;;;;;4940330;28;20665;-84
2022/09/11 10:17:52;;;;;;;5.63;5.03;;;20.50;99.90;;;;;;4946681;28;21211;-85
2022/09/11 10:20:25;;;;;;;6.20;5.60;;;20.60;99.90;;;;;;4943868;28;20706;-85
2022/09/11 10:22:53;;;;;;;8.17;5.23;;;20.60;99.90;;;;;;4944060;28;20665;-84
2022/09/11 10:25:25;;;;;;;8.77;4.40;;;20.60;99.90;;;;;;4942143;28;20635;-82
2022/09/11 10:28:03;;;;;;;5.80;5.47;;;20.70;99.90;;;;;;4955219;28;20622;-83
2022/09/11 10:30:36;;;;;;;6.67;6.20;;;20.70;99.90;;;;;;4943444;28;20653;-84
2022/09/11 10:33:06;;;;;;;6.57;6.07;;;20.80;99.90;;;;;;4950376;28;20650;-85
2022/09/11 10:35:36;;;;;;;6.63;6.13;;;20.90;99.90;;;;;;4945845;28;20716;-84
2022/09/11 10:38:16;;;;;;;5.80;5.30;;;20.90;99.90;;;;;;4941160;28;20973;-85
2022/09/11 10:40:55;;;;;;;6.47;6.07;;;21.20;99.90;;;;;;4945744;28;20808;-84
2022/09/11 10:43:26;;;;;;;4.50;4.30;;;21.60;99.90;;;;;;4944902;28;20752;-86
2022/09/11 10:46:20;;;;;;;5.10;4.80;;;22.10;99.90;;;;;;4942298;28;20738;-84
2022/09/11 10:48:54;;;;;;;5.33;4.97;;;22.60;99.90;;;;;;4945717;28;20625;-83
2022/09/11 10:51:22;;;;;;;5.60;5.20;;;22.80;99.90;;;;;;4945013;28;20631;-83
2022/09/11 10:53:59;;;;;;;5.20;4.70;;;23.00;99.90;;;;;;4946614;28;20729;-83
2022/09/11 10:56:27;;;;;;;4.57;4.17;;;22.70;99.90;;;;;;4947075;28;20972;-86
2022/09/11 10:59:03;;;;;;;5.80;5.40;;;22.70;99.90;;;;;;4951477;28;20677;-84
2022/09/11 11:01:30;;;;;;;4.13;3.73;;;22.70;99.90;;;;;;4945606;28;21424;-84
2022/09/11 11:03:57;;;;;;;4.40;4.10;;;22.70;99.90;;;;;;4942412;28;21002;-84
2022/09/11 11:06:41;;;;;;;8.30;7.63;;;22.70;99.90;;;;;;4944457;28;20638;-83
2022/09/11 11:09:36;;;;;;;6.80;6.40;;;22.80;99.90;;;;;;4950937;28;20611;-84
2022/09/11 11:12:21;;;;;;;5.23;4.77;;;23.00;99.90;;;;;;4942295;28;20678;-86
2022/09/11 11:15:38;;;;;;;4.00;3.80;;;23.30;99.90;;;;;;4943661;28;20610;-84
2022/09/11 11:18:25;;;;;;;3.67;3.37;;;23.70;99.90;;;;;;4909009;29;20639;-84
2022/09/11 11:21:05;;;;;;;5.87;5.27;;;24.20;99.90;;;;;;4905535;29;20632;-85
2022/09/11 11:24:00;;;;;;;4.47;4.17;;;24.40;97.70;;;;;;4939947;28;20630;-85
2022/09/11 11:26:42;;;;;;;3.60;3.40;;;24.70;94.80;;;;;;4939918;28;20645;-84
2022/09/11 11:29:36;;;;;;;3.60;3.40;;;25.00;95.40;;;;;;4942277;28;20630;-85
2022/09/11 11:32:21;;;;;;;3.70;3.40;;;25.30;93.80;;;;;;4945685;28;21344;-85
2022/09/11 11:35:07;;;;;;;3.17;2.90;;;25.80;91.40;;;;;;4939245;28;20641;-85
2022/09/11 11:37:40;;;;;;;3.47;3.27;;;26.40;90.40;;;;;;4944503;28;20630;-85
2022/09/11 11:40:14;;;;;;;2.87;2.50;;;26.90;78.10;;;;;;4943859;28;20671;-85
2022/09/11 11:42:45;;;;;;;3.20;2.90;;;27.40;76.30;;;;;;4941170;28;20669;-84
2022/09/11 11:45:25;;;;;;;2.80;2.70;;;27.50;71.50;;;;;;4946192;28;20722;-85
2022/09/11 11:47:54;;;;;;;4.10;3.80;;;27.50;70.40;;;;;;4940565;28;20648;-85
2022/09/11 11:50:26;;;;;;;3.73;3.43;;;27.70;70.30;;;;;;4946213;28;20659;-85
2022/09/11 11:52:59;;;;;;;3.77;3.50;;;27.90;69.20;;;;;;4946033;28;20658;-85
2022/09/11 11:55:30;;;;;;;3.40;3.20;;;28.10;71.20;;;;;;4941357;28;20611;-85
2022/09/11 11:58:05;;;;;;;4.17;3.87;;;28.50;67.30;;;;;;4944458;28;20637;-85
2022/09/11 12:00:38;;;;;;;5.90;4.00;;;28.50;65.20;;;;;;4939881;28;20670;-84
2022/09/11 12:03:12;;;;;;;4.97;3.70;;;28.50;65.00;;;;;;4945531;28;21201;-83
2022/09/11 12:05:39;;;;;;;3.53;3.10;;;28.20;66.10;;;;;;4945261;28;20637;-84
2022/09/11 12:08:16;;;;;;;3.70;3.50;;;27.50;66.10;;;;;;5060086;27;20716;-85
2022/09/11 12:10:53;;;;;;;4.43;4.13;;;27.00;68.10;;;;;;5059934;28;20988;-83
2022/09/11 12:13:32;;;;;;;3.60;3.30;;;26.50;69.50;;;;;;5051199;28;20638;-84
2022/09/11 12:21:34;;;;;;;4.57;4.27;;;25.10;80.70;;;;;;4991780;28;20671;-84
2022/09/11 12:24:18;;;;;;;4.23;3.93;;;25.10;81.10;;;;;;4991465;28;20644;-83
2022/09/11 12:26:44;;;;;;;3.70;3.50;;;25.10;84.10;;;;;;4992126;28;20659;-83
2022/09/11 12:29:51;;;;;;;4.17;3.87;;;25.40;83.40;;;;;;4987843;28;20728;-84
2022/09/11 12:32:39;;;;;;;3.50;3.30;;;25.50;80.80;;;;;;4990537;28;20635;-83
2022/09/11 12:35:20;;;;;;;3.50;3.30;;;25.50;77.70;;;;;;4991966;28;20656;-83
2022/09/11 12:37:53;;;;;;;3.70;3.50;;;25.50;75.90;;;;;;4986655;28;20625;-83
2022/09/11 12:40:31;;;;;;;5.07;4.77;;;25.50;77.90;;;;;;4992251;28;20668;-83
2022/09/11 12:43:15;;;;;;;4.87;4.57;;;25.80;77.70;;;;;;4989198;28;20643;-84
2022/09/11 12:45:42;;;;;;;4.80;4.50;;;26.00;78.40;;;;;;4989858;28;20616;-83
2022/09/11 12:48:14;;;;;;;4.87;4.57;;;25.90;76.60;;;;;;4984159;28;21025;-83
2022/09/11 12:50:49;;;;;;;4.17;3.90;;;26.00;75.90;;;;;;4988400;28;20660;-84
2022/09/11 12:53:22;;;;;;;3.70;3.53;;;26.00;76.60;;;;;;4985836;28;20977;-83
2022/09/11 12:55:59;;;;;;;3.67;3.47;;;26.20;74.10;;;;;;4991244;28;20632;-85
2022/09/11 12:58:32;;;;;;;6.13;5.60;;;26.20;76.90;;;;;;4994863;28;20627;-84
2022/09/11 13:01:14;;;;;;;4.70;4.40;;;26.20;73.50;;;;;;4990834;28;20655;-84
2022/09/11 13:03:53;;;;;;;5.10;4.77;;;26.10;73.10;;;;;;4994456;28;20731;-84
2022/09/11 13:06:21;;;;;;;4.00;3.70;;;26.20;72.00;;;;;;4993560;28;20674;-85
2022/09/11 13:08:53;;;;;;;4.93;4.73;;;26.10;71.40;;;;;;4988689;28;20641;-85
2022/09/11 13:11:42;;;;;;;5.03;4.53;;;26.20;70.70;;;;;;4986534;28;20781;-84
2022/09/11 13:14:48;;;;;;;4.63;4.37;;;26.40;69.90;;;;;;4983400;28;20747;-84
2022/09/11 13:17:24;;;;;;;4.40;4.20;;;26.30;70.90;;;;;;4986627;28;20675;-84
2022/09/11 13:19:51;;;;;;;5.17;4.77;;;26.30;71.80;;;;;;4970048;28;20676;-83
2022/09/11 13:22:26;;;;;;;5.40;5.10;;;25.90;73.30;;;;;;4972184;28;21015;-83
2022/09/11 13:25:05;;;;;;;5.17;4.77;;;25.50;74.90;;;;;;4979734;28;20628;-84
2022/09/11 13:27:36;;;;;;;5.73;5.33;;;25.30;78.80;;;;;;4972825;28;20680;-84
2022/09/11 13:30:08;;;;;;;6.13;5.73;;;25.00;81.90;;;;;;4977807;28;20678;-84
2022/09/11 13:32:35;;;;;;;4.80;4.40;;;24.80;84.90;;;;;;4979995;28;20659;-83
2022/09/11 13:35:11;;;;;;;5.77;5.47;;;24.60;87.80;;;;;;4974074;28;21198;-83
2022/09/11 13:37:41;;;;;;;7.13;5.97;;;24.50;89.40;;;;;;4974963;28;20632;-83
2022/09/11 13:40:19;;;;;;;5.80;5.30;;;24.50;90.30;;;;;;4968074;28;20997;-83
2022/09/11 13:42:48;;;;;;;5.37;4.87;;;24.30;91.10;;;;;;4974422;28;20625;-83
2022/09/11 13:45:17;;;;;;;5.73;5.43;;;24.30;91.90;;;;;;4973489;28;20639;-83
2022/09/11 13:47:44;;;;;;;5.13;4.80;;;24.30;91.00;;;;;;4981961;28;21031;-83
2022/09/11 13:50:14;;;;;;;5.50;5.20;;;24.20;91.50;;;;;;4977984;28;20661;-83
2022/09/11 13:52:43;;;;;;;5.17;4.87;;;24.00;92.40;;;;;;4977021;28;20636;-83
2022/09/11 13:55:18;;;;;;;5.40;5.10;;;23.90;93.50;;;;;;4975724;28;21078;-83
2022/09/11 13:57:54;;;;;;;5.60;5.30;;;24.00;94.70;;;;;;4975952;28;20632;-83
2022/09/11 14:00:41;;;;;;;4.70;4.40;;;24.00;94.90;;;;;;4977832;28;20653;-84
2022/09/11 14:03:19;;;;;;;5.20;4.90;;;23.90;95.60;;;;;;4973946;28;21176;-84
2022/09/11 14:05:50;;;;;;;5.20;4.80;;;24.10;94.60;;;;;;4977607;28;20633;-84
2022/09/11 14:08:25;;;;;;;4.60;4.30;;;24.10;93.90;;;;;;4981815;28;20672;-84
2022/09/11 14:10:55;;;;;;;5.07;4.77;;;24.10;94.60;;;;;;4970338;28;21705;-84
2022/09/11 14:13:29;;;;;;;5.33;4.93;;;24.10;95.10;;;;;;4975836;28;21094;-84
2022/09/11 14:15:59;;;;;;;5.20;4.80;;;24.10;95.40;;;;;;4970166;28;20743;-84
2022/09/11 14:18:30;;;;;;;5.70;5.40;;;24.20;94.90;;;;;;4975919;28;21010;-84
2022/09/11 14:21:00;;;;;;;7.07;6.40;;;24.30;93.10;;;;;;4979906;28;20668;-84
2022/09/11 14:23:28;;;;;;;4.90;4.57;;;24.50;92.40;;;;;;4977671;28;20713;-85
2022/09/11 14:26:15;;;;;;;5.43;5.03;;;24.80;92.50;;;;;;4974888;28;20768;-86
2022/09/11 14:29:00;;;;;;;4.40;4.13;;;25.60;90.70;;;;;;4972084;28;20663;-87
2022/09/11 14:31:30;;;;;;;4.53;4.20;;;26.50;80.90;;;;;;4968050;28;20661;-85
2022/09/11 14:34:14;;;;;;;4.30;4.10;;;27.40;76.30;;;;;;4977361;28;21038;-85
2022/09/11 14:36:43;;;;;;;3.70;3.40;;;28.00;72.70;;;;;;4973267;28;21032;-85
2022/09/11 14:39:15;;;;;;;5.50;3.20;;;28.30;65.90;;;;;;4973577;28;20700;-84
2022/09/11 14:41:44;;;;;;;4.50;3.73;;;28.50;65.60;;;;;;4975697;28;20649;-85
2022/09/11 14:44:14;;;;;;;5.33;5.03;;;28.50;63.00;;;;;;4965975;28;20681;-85
2022/09/11 14:46:42;;;;;;;5.40;5.10;;;28.30;62.90;;;;;;4977526;28;20710;-85
2022/09/11 14:49:09;;;;;;;6.00;5.60;;;28.20;63.40;;;;;;4971904;28;21047;-85
2022/09/11 14:51:36;;;;;;;3.20;3.00;;;28.20;64.00;;;;;;4977201;28;20649;-85
2022/09/11 14:54:04;;;;;;;3.20;3.00;;;28.10;63.80;;;;;;4975346;28;20661;-86
2022/09/11 14:56:31;;;;;;;3.20;3.00;;;28.30;65.00;;;;;;4974544;28;20644;-86
2022/09/11 14:58:58;;;;;;;4.93;4.73;;;28.80;62.40;;;;;;4979246;28;20675;-85
2022/09/11 15:01:26;;;;;;;2.70;2.50;;;29.40;59.70;;;;;;4974869;28;20767;-86
2022/09/11 15:03:55;;;;;;;8.17;2.93;;;30.00;56.90;;;;;;4972089;28;20660;-85
2022/09/11 15:06:24;;;;;;;2.70;2.50;;;30.40;57.30;;;;;;4972388;28;20660;-86
2022/09/11 15:08:51;;;;;;;3.93;2.40;;;30.90;56.00;;;;;;4973834;28;21141;-85
2022/09/11 15:11:18;;;;;;;2.67;2.57;;;31.30;53.90;;;;;;4974747;28;20668;-85
2022/09/11 15:13:45;;;;;;;3.90;3.30;;;31.00;53.10;;;;;;4972382;28;20624;-85
2022/09/11 15:16:12;;;;;;;3.20;2.80;;;31.00;53.10;;;;;;4971717;28;20644;-85
2022/09/11 15:18:40;;;;;;;3.90;3.60;;;31.00;52.20;;;;;;4970138;28;20640;-85
2022/09/11 15:21:07;;;;;;;4.17;2.90;;;30.90;52.60;;;;;;4972863;28;20727;-85
2022/09/11 15:23:34;;;;;;;2.83;2.63;;;31.10;52.30;;;;;;4970677;28;20632;-85
2022/09/11 15:26:01;;;;;;;3.93;2.90;;;31.10;51.50;;;;;;4978977;28;20644;-85
2022/09/11 15:28:30;;;;;;;2.83;2.50;;;31.10;51.50;;;;;;4969953;28;20675;-85
2022/09/11 15:30:58;;;;;;;2.97;2.77;;;31.10;51.50;;;;;;4969814;28;20756;-85
2022/09/11 15:33:25;;;;;;;2.67;2.47;;;31.40;51.60;;;;;;4968825;28;20804;-85
2022/09/11 15:36:00;;;;;;;2.70;2.50;;;31.70;50.30;;;;;;4975789;28;20664;-85
2022/09/11 15:38:27;;;;;;;3.00;2.80;;;31.80;49.90;;;;;;4970555;28;20640;-85
2022/09/11 15:40:55;;;;;;;3.17;2.97;;;31.90;50.30;;;;;;4972138;28;20656;-86
2022/09/11 15:43:22;;;;;;;2.63;2.47;;;31.90;50.10;;;;;;4970472;28;21574;-85
2022/09/11 15:45:49;;;;;;;2.80;2.60;;;31.90;50.10;;;;;;4970722;28;20652;-85
2022/09/11 15:48:17;;;;;;;3.10;2.90;;;32.10;50.50;;;;;;4970799;28;21027;-85
2022/09/11 15:50:44;;;;;;;2.50;2.30;;;32.00;48.70;;;;;;4970005;28;20668;-85
2022/09/11 15:53:12;;;;;;;3.27;2.97;;;32.00;49.80;;;;;;4977553;28;20658;-85
2022/09/11 15:55:39;;;;;;;3.67;2.73;;;32.20;50.20;;;;;;4971310;28;20664;-85
2022/09/11 15:58:05;;;;;;;3.37;3.17;;;32.20;50.60;;;;;;4974009;28;20643;-86
2022/09/11 16:00:34;;;;;;;2.73;2.53;;;32.20;50.20;;;;;;4971864;28;20737;-85
2022/09/11 16:03:01;;;;;;;3.00;2.53;;;32.30;49.50;;;;;;4974609;28;20640;-85
2022/09/11 16:05:28;;;;;;;3.20;2.47;;;32.20;49.80;;;;;;4977413;28;20992;-84
2022/09/11 16:07:55;;;;;;;3.07;2.67;;;32.20;49.40;;;;;;4973138;28;20818;-84
2022/09/11 16:10:23;;;;;;;2.70;2.50;;;31.80;50.10;;;;;;4979070;28;20655;-84
2022/09/11 16:12:50;;;;;;;2.70;2.50;;;31.00;50.80;;;;;;4979244;28;20640;-84
2022/09/11 16:15:17;;;;;;;3.80;3.43;;;30.40;51.80;;;;;;4973425;28;20688;-83
2022/09/11 16:17:43;;;;;;;3.70;3.40;;;29.90;52.90;;;;;;4973684;28;20640;-84
2022/09/11 16:20:11;;;;;;;3.40;3.10;;;29.30;54.00;;;;;;4980007;28;20727;-84
2022/09/11 16:22:38;;;;;;;4.00;3.30;;;29.10;54.50;;;;;;4969975;28;20739;-85
2022/09/11 16:25:05;;;;;;;3.40;3.20;;;29.30;54.00;;;;;;4973915;28;20639;-85
2022/09/11 16:27:34;;;;;;;3.33;3.03;;;29.40;53.60;;;;;;4972320;28;20978;-85
2022/09/11 16:30:01;;;;;;;3.30;3.00;;;29.60;54.10;;;;;;4973421;28;20663;-83
2022/09/11 16:32:27;;;;;;;4.20;3.80;;;29.30;53.90;;;;;;4970386;28;21195;-83
2022/09/11 16:34:55;;;;;;;3.20;3.00;;;29.00;55.30;;;;;;4976508;28;20667;-83
2022/09/11 16:37:22;;;;;;;3.60;3.40;;;28.70;54.90;;;;;;4973535;28;20999;-84
2022/09/11 16:39:49;;;;;;;3.23;3.03;;;28.50;55.40;;;;;;4977498;28;20679;-84
2022/09/11 16:42:20;;;;;;;3.53;3.33;;;28.20;56.00;;;;;;4975943;28;20643;-85
2022/09/11 16:44:48;;;;;;;4.60;3.50;;;27.90;57.70;;;;;;4971986;28;20649;-84
2022/09/11 16:47:16;;;;;;;3.93;3.60;;;27.90;56.80;;;;;;4970388;28;21188;-84
2022/09/11 16:49:43;;;;;;;3.80;3.27;;;28.00;57.00;;;;;;4972044;28;20754;-85
2022/09/11 16:52:10;;;;;;;3.47;3.27;;;28.00;57.00;;;;;;4979667;28;20632;-84
2022/09/11 16:54:37;;;;;;;3.43;3.23;;;28.00;58.20;;;;;;4978066;28;20643;-84
2022/09/11 16:57:05;;;;;;;3.17;2.87;;;28.10;58.20;;;;;;4977845;28;20744;-84
2022/09/11 16:59:32;;;;;;;4.80;3.60;;;28.10;57.20;;;;;;4981975;28;20649;-84
2022/09/11 17:02:00;;;;;;;3.60;3.40;;;28.10;59.10;;;;;;4978855;28;21011;-84
2022/09/11 17:04:27;;;;;;;3.53;3.30;;;28.00;58.40;;;;;;4979173;28;20649;-84
2022/09/11 17:06:53;;;;;;;3.10;2.90;;;27.80;58.60;;;;;;4979846;28;20641;-84
2022/09/11 17:09:20;;;;;;;3.60;3.30;;;27.60;58.60;;;;;;4976427;28;20820;-83
2022/09/11 17:11:47;;;;;;;3.23;2.93;;;27.30;59.50;;;;;;4975128;28;20677;-83
2022/09/11 17:14:16;;;;;;;3.63;3.20;;;27.00;60.00;;;;;;4973661;28;21140;-83
2022/09/11 17:16:42;;;;;;;4.00;3.70;;;26.70;61.10;;;;;;4976097;28;20740;-83
2022/09/11 17:19:11;;;;;;;3.20;3.00;;;26.30;62.90;;;;;;4976638;28;20629;-83
2022/09/11 17:21:38;;;;;;;3.57;3.30;;;25.90;66.50;;;;;;4975032;28;20650;-83
2022/09/11 17:24:06;;;;;;;4.53;3.73;;;25.60;67.60;;;;;;4977523;28;20647;-83
2022/09/11 17:26:33;;;;;;;4.90;4.70;;;25.20;71.40;;;;;;4974896;28;21167;-83
2022/09/11 17:29:02;;;;;;;3.87;3.57;;;24.90;71.50;;;;;;4973016;28;21332;-83
2022/09/11 17:31:29;;;;;;;3.37;3.17;;;24.60;74.10;;;;;;4978395;28;20752;-83
2022/09/11 17:33:56;;;;;;;3.67;3.47;;;24.40;73.70;;;;;;4975440;28;20778;-83
2022/09/11 17:36:24;;;;;;;3.93;3.73;;;24.10;76.80;;;;;;4980908;28;20643;-83
2022/09/11 17:38:53;;;;;;;5.23;4.83;;;23.90;78.50;;;;;;4973351;28;20676;-83
2022/09/11 17:41:20;;;;;;;4.17;3.87;;;23.70;81.50;;;;;;4979389;28;20668;-83
2022/09/11 17:43:47;;;;;;;4.33;4.03;;;23.50;84.50;;;;;;4983687;28;20667;-83
2022/09/11 17:46:16;;;;;;;5.23;4.03;;;23.20;87.20;;;;;;4979061;28;20671;-83
2022/09/11 17:48:44;;;;;;;4.10;3.80;;;23.10;90.20;;;;;;4972879;28;20676;-83
2022/09/11 17:51:15;;;;;;;3.10;2.90;;;22.80;92.10;;;;;;4973768;28;20661;-83
2022/09/11 17:53:44;;;;;;;3.47;3.27;;;22.60;94.30;;;;;;4974462;28;20637;-83
2022/09/11 17:56:13;;;;;;;4.17;3.30;;;22.40;96.60;;;;;;4975924;28;20653;-83
2022/09/11 17:58:42;;;;;;;3.50;3.30;;;22.10;98.80;;;;;;4974827;28;20625;-83
2022/09/11 18:01:10;;;;;;;3.80;3.60;;;21.90;99.90;;;;;;4972359;28;20764;-82
2022/09/11 18:03:37;;;;;;;3.20;3.00;;;21.70;99.90;;;;;;4974586;28;20704;-83
2022/09/11 18:06:15;;;;;;;3.73;3.43;;;21.50;99.90;;;;;;4980348;28;20637;-81
2022/09/11 18:08:45;;;;;;;3.73;3.40;;;21.40;99.90;;;;;;4973806;28;20661;-83
2022/09/11 18:11:12;;;;;;;3.50;3.30;;;21.10;99.90;;;;;;4975127;28;20658;-83
2022/09/11 18:13:40;;;;;;;3.57;3.30;;;20.90;99.90;;;;;;4977196;28;20712;-82
2022/09/11 18:16:07;;;;;;;3.53;3.33;;;20.80;99.90;;;;;;4975366;28;20649;-82
2022/09/11 18:18:34;;;;;;;4.50;4.10;;;20.70;99.90;;;;;;4981099;28;20632;-82
2022/09/11 18:21:04;;;;;;;4.27;3.97;;;20.60;99.90;;;;;;4974131;28;21160;-82
2022/09/11 18:23:31;;;;;;;3.73;3.37;;;20.40;99.90;;;;;;4980996;28;20687;-82
2022/09/11 18:25:59;;;;;;;4.07;3.70;;;20.30;99.90;;;;;;4973882;28;20691;-85
2022/09/11 18:28:27;;;;;;;3.70;3.30;;;20.20;99.90;;;;;;4973267;28;20750;-84
2022/09/11 18:31:00;;;;;;;4.40;4.10;;;20.10;99.90;;;;;;4977637;28;20997;-84
2022/09/11 18:33:27;;;;;;;5.23;4.87;;;19.90;99.90;;;;;;4974037;28;21205;-82
2022/09/11 18:35:54;;;;;;;4.73;4.33;;;19.80;99.90;;;;;;4978711;28;20655;-82
2022/09/11 18:38:21;;;;;;;6.53;6.03;;;19.70;99.90;;;;;;4986571;28;20637;-82
2022/09/11 18:40:56;;;;;;;4.93;4.53;;;19.60;99.90;;;;;;4979814;28;21218;-82
2022/09/11 18:43:25;;;;;;;9.50;8.10;;;19.50;99.90;;;;;;4974349;28;20613;-81
2022/09/11 18:45:52;;;;;;;6.00;5.47;;;19.40;99.90;;;;;;4973834;28;20652;-82
2022/09/11 18:48:19;;;;;;;5.97;5.47;;;19.30;99.90;;;;;;4974248;28;20669;-82
2022/09/11 18:50:45;;;;;;;7.63;5.40;;;19.20;99.90;;;;;;4975595;28;21087;-82
2022/09/11 18:53:13;;;;;;;5.17;4.77;;;19.10;99.90;;;;;;4977299;28;21214;-82
2022/09/11 18:55:40;;;;;;;5.23;4.83;;;19.00;99.90;;;;;;4971338;28;20688;-83
2022/09/11 18:58:07;;;;;;;5.20;4.80;;;18.90;99.90;;;;;;4973678;28;20657;-83
2022/09/11 19:00:37;;;;;;;5.97;5.57;;;18.70;99.90;;;;;;4981160;28;21270;-82
2022/09/11 19:03:04;;;;;;;5.97;5.53;;;18.60;99.90;;;;;;4972583;28;20675;-83
2022/09/11 19:05:30;;;;;;;5.00;4.70;;;18.50;99.90;;;;;;4975896;28;20654;-82
2022/09/11 19:08:00;;;;;;;4.40;4.10;;;18.40;99.90;;;;;;4978584;28;20710;-83
2022/09/11 19:10:27;;;;;;;4.80;4.50;;;18.30;99.90;;;;;;4976884;28;20665;-83
2022/09/11 19:12:54;;;;;;;4.30;4.00;;;18.30;99.90;;;;;;4980293;28;20648;-83
2022/09/11 19:15:21;;;;;;;4.83;4.53;;;18.30;99.90;;;;;;4974948;28;21007;-83
2022/09/11 19:17:49;;;;;;;5.87;5.47;;;18.20;99.90;;;;;;4972837;28;20632;-83
2022/09/11 19:20:16;;;;;;;4.77;4.47;;;18.00;99.90;;;;;;4976449;28;20664;-83
2022/09/11 19:22:43;;;;;;;5.00;4.60;;;18.00;99.90;;;;;;4974520;28;20650;-83
2022/09/11 19:25:10;;;;;;;4.70;4.40;;;17.80;99.90;;;;;;4982645;28;20676;-83
2022/09/11 19:27:36;;;;;;;6.00;5.60;;;17.80;99.90;;;;;;4975468;28;20633;-83
2022/09/11 19:30:06;;;;;;;5.20;4.80;;;17.60;99.90;;;;;;4974135;28;20780;-83
2022/09/11 19:32:33;;;;;;;5.43;4.90;;;17.60;99.90;;;;;;4981695;28;20730;-83
2022/09/11 19:35:02;;;;;;;5.40;5.00;;;17.50;99.90;;;;;;4981761;28;20616;-83
2022/09/11 19:37:29;;;;;;;4.90;4.60;;;17.50;99.90;;;;;;4974285;28;20644;-82
2022/09/11 19:39:57;;;;;;;5.10;4.70;;;17.40;99.90;;;;;;4975674;28;21251;-83
2022/09/11 19:42:24;;;;;;;5.70;5.30;;;17.40;99.90;;;;;;4973977;28;21184;-83
2022/09/11 19:44:51;;;;;;;5.57;5.20;;;17.30;99.90;;;;;;4974449;28;20679;-83
2022/09/11 19:47:18;;;;;;;5.77;5.40;;;17.20;99.90;;;;;;4976522;28;20648;-83
2022/09/11 19:49:45;;;;;;;5.53;5.10;;;17.10;99.90;;;;;;4978469;28;20751;-83
2022/09/11 19:52:14;;;;;;;4.70;4.30;;;17.00;99.90;;;;;;4973514;28;21121;-82
2022/09/11 19:54:41;;;;;;;5.83;5.43;;;16.90;99.90;;;;;;4976498;28;20642;-83
2022/09/11 19:57:07;;;;;;;5.40;5.10;;;16.80;99.90;;;;;;4970785;28;20633;-83
2022/09/11 19:59:34;;;;;;;5.13;4.80;;;16.70;99.90;;;;;;4971315;28;21031;-83
2022/09/11 20:02:01;;;;;;;5.53;5.20;;;16.70;99.90;;;;;;4973096;28;20688;-83
2022/09/11 20:04:28;;;;;;;4.80;4.50;;;16.60;99.90;;;;;;4977407;28;20629;-83
2022/09/11 20:06:55;;;;;;;5.40;5.00;;;16.60;99.90;;;;;;4971889;28;20641;-83
2022/09/11 20:09:23;;;;;;;6.57;5.03;;;16.50;99.90;;;;;;4967065;28;20653;-83
2022/09/11 20:11:50;;;;;;;5.40;5.10;;;16.50;99.90;;;;;;4970421;28;20645;-83
2022/09/11 20:14:17;;;;;;;5.43;5.03;;;16.40;99.90;;;;;;4973061;28;20640;-83
2022/09/11 20:16:44;;;;;;;5.73;5.13;;;16.40;99.90;;;;;;4997646;28;20652;-83
2022/09/11 20:19:11;;;;;;;5.37;4.80;;;16.30;99.90;;;;;;4975594;28;20645;-83
2022/09/11 20:21:38;;;;;;;6.40;5.07;;;16.30;99.90;;;;;;4975414;28;20669;-83
2022/09/11 20:24:06;;;;;;;6.13;5.13;;;16.30;99.90;;;;;;4975705;28;20665;-83
2022/09/11 20:26:35;;;;;;;5.17;4.77;;;16.20;99.90;;;;;;4970169;28;20724;-83
2022/09/11 20:29:07;;;;;;;5.03;4.73;;;16.10;99.90;;;;;;4974095;28;21478;-84
2022/09/11 20:31:37;;;;;;;5.67;5.23;;;16.10;99.90;;;;;;4979721;28;20673;-84
2022/09/11 20:34:04;;;;;;;5.50;5.00;;;16.00;99.90;;;;;;4987391;28;20993;-83
2022/09/11 20:36:32;;;;;;;5.67;5.27;;;15.90;99.90;;;;;;4975753;28;20649;-84
2022/09/11 20:38:59;;;;;;;5.70;5.30;;;15.90;99.90;;;;;;4985810;28;20636;-83
2022/09/11 20:41:28;;;;;;;4.80;4.50;;;15.80;99.90;;;;;;4977798;28;20664;-85
2022/09/11 20:43:58;;;;;;;6.27;5.70;;;15.70;99.90;;;;;;4973680;28;20632;-83
2022/09/11 20:46:25;;;;;;;5.50;5.13;;;15.60;99.90;;;;;;4977368;28;20728;-83
2022/09/11 20:48:52;;;;;;;5.47;5.17;;;15.50;99.90;;;;;;4979777;28;20684;-84
2022/09/11 20:51:20;;;;;;;5.80;5.30;;;15.50;99.90;;;;;;4976069;28;20677;-84
2022/09/11 20:53:47;;;;;;;5.40;5.00;;;15.40;99.90;;;;;;4982853;28;20625;-84
2022/09/11 20:56:15;;;;;;;7.27;5.60;;;15.40;99.90;;;;;;4978350;28;20729;-84
2022/09/11 20:58:43;;;;;;;6.40;6.00;;;15.30;99.90;;;;;;4981445;28;20649;-85
2022/09/11 21:01:15;;;;;;;6.00;5.70;;;15.30;99.90;;;;;;4973525;28;20628;-84
2022/09/11 21:03:47;;;;;;;5.73;5.30;;;15.20;99.90;;;;;;4975783;28;21220;-83
2022/09/11 21:06:14;;;;;;;6.40;5.90;;;15.10;99.90;;;;;;4970137;28;21151;-83
2022/09/11 21:08:43;;;;;;;5.93;5.53;;;15.10;99.90;;;;;;4983752;28;20660;-84
2022/09/11 21:11:11;;;;;;;7.10;6.47;;;15.00;99.90;;;;;;4964018;28;20629;-84
2022/09/11 21:13:40;;;;;;;6.50;6.00;;;14.90;99.90;;;;;;4975503;28;20621;-84
2022/09/11 21:16:08;;;;;;;6.13;5.73;;;14.80;99.90;;;;;;4969671;28;20644;-84
2022/09/11 21:18:38;;;;;;;6.70;6.20;;;14.80;99.90;;;;;;4971965;28;21128;-84
2022/09/11 21:21:06;;;;;;;7.03;6.63;;;14.80;99.90;;;;;;4976435;28;21165;-83
2022/09/11 21:23:35;;;;;;;6.77;6.27;;;14.70;99.90;;;;;;4975890;28;20706;-82
2022/09/11 21:26:02;;;;;;;7.00;6.50;;;14.70;99.90;;;;;;4968913;28;20640;-82
2022/09/11 21:28:29;;;;;;;6.20;5.70;;;14.60;99.90;;;;;;4975877;28;20672;-83
2022/09/11 21:30:59;;;;;;;5.70;5.40;;;14.60;99.90;;;;;;4974495;28;20700;-83
2022/09/11 21:33:26;;;;;;;6.93;6.53;;;14.60;99.90;;;;;;4977353;28;21242;-82